Campbell Airport

Jump to: basic info | weather | frequencies | runways | comments

Related pages: nearby airports | nearby navaids | notams | map

Basic information (top)

Codes: KC81 C81
Location: lon 42.324600, lat -88.074097, elev 788 ft / 240 m msl
Status: small_airport
Scheduled airline service: no
Links: Wikipedia Mobile

Weather (top)

Current conditions for Waukegan Regional Airport 11nm (20km) ENE (rec'd 2015/02/28 12:55Z):

KUGN 281255Z 23003KT 7SM CLR M21/M22 A3068 RMK AO2 SLP424 T12061222

Airport forecast for Kenosha Regional Airport 18nm (32km) NNE (rec'd 2015/02/28 12:39Z):

TAF KENW 281137Z 2812/0112 00000KT P6SM SKC 
     FM281500 22006KT P6SM SKC 
     FM010100 16005KT P6SM BKN100 
     FM010300 18005KT 5SM -SN OVC030 
     FM010700 20005KT P6SM OVC020

Frequencies (top)

Verify before use: may be inaccurate or out of date.

A/D: 120.55 MHz (CHICAGO APP/DEP)
UNIC: 122.7 MHz (CTAF/UNICOM)

Runways (top)

06/24: 3,573 x 40 ft (1,089 x 12 m) — other (COP) — not lighted — threshold 24 displaced 301 ft (92 m)

09/27: 3,270 x 40 ft (997 x 12 m) — paved — lighted

Latest comments (top)

My aviation birthplace.: I did my Private Pilot training here. [read]

More... (top)

See also NOTAMs and nearby airports and navaids, or visit the Campbell Airport page at the main OurAirports website..